createdAt,value
2022-09-09T00:02:07.021Z,48.10
2022-09-09T00:04:37.600Z,48.10
2022-09-09T00:07:11.977Z,48.00
2022-09-09T00:09:46.952Z,48.00
2022-09-09T00:12:19.215Z,47.90
2022-09-09T00:14:53.365Z,47.90
2022-09-09T00:17:35.368Z,47.90
2022-09-09T00:20:07.958Z,48.00
2022-09-09T00:22:36.555Z,47.90
2022-09-09T00:25:14.030Z,47.90
2022-09-09T00:27:46.708Z,47.90
2022-09-09T00:30:20.607Z,47.80
2022-09-09T00:32:52.728Z,47.80
2022-09-09T00:35:26.742Z,47.80
2022-09-09T00:37:58.318Z,47.80
2022-09-09T00:40:32.928Z,47.80
2022-09-09T00:43:16.421Z,47.80
2022-09-09T00:46:01.511Z,48.00
2022-09-09T00:48:39.100Z,47.80
2022-09-09T00:51:14.335Z,47.70
2022-09-09T00:54:07.698Z,47.90
2022-09-09T00:56:43.347Z,47.90
2022-09-09T00:59:28.585Z,47.90
2022-09-09T01:01:58.345Z,47.90
2022-09-09T01:04:37.187Z,49.10
2022-09-09T01:07:17.590Z,47.90
2022-09-09T01:09:56.537Z,47.80
2022-09-09T01:12:35.695Z,47.80
2022-09-09T01:15:11.119Z,47.80
2022-09-09T01:17:55.682Z,47.90
2022-09-09T01:20:28.962Z,47.80
2022-09-09T01:23:22.536Z,47.80
2022-09-09T01:26:23.598Z,47.80
2022-09-09T01:28:54.581Z,47.80
2022-09-09T01:31:34.756Z,47.80
2022-09-09T01:34:03.310Z,47.80
2022-09-09T01:36:41.138Z,47.90
2022-09-09T01:39:09.430Z,47.80
2022-09-09T01:41:40.489Z,47.90
2022-09-09T01:44:13.154Z,47.90
2022-09-09T01:46:44.879Z,47.80
2022-09-09T01:49:20.255Z,47.90
2022-09-09T01:51:52.134Z,47.90
2022-09-09T01:54:27.062Z,48.00
2022-09-09T01:57:08.656Z,47.80
2022-09-09T01:59:54.374Z,47.90
2022-09-09T02:02:28.683Z,47.90
2022-09-09T02:05:35.955Z,47.90
2022-09-09T02:08:08.962Z,48.00
2022-09-09T02:10:52.847Z,47.80
2022-09-09T02:13:37.197Z,47.90
2022-09-09T02:16:10.577Z,47.90
2022-09-09T02:18:47.283Z,47.80
2022-09-09T02:21:16.859Z,47.80
2022-09-09T02:23:47.952Z,47.80
2022-09-09T02:26:21.224Z,47.90
2022-09-09T02:28:57.755Z,47.90
2022-09-09T02:31:27.792Z,47.90
2022-09-09T02:34:04.158Z,47.90
2022-09-09T02:36:36.058Z,47.90
2022-09-09T02:39:07.884Z,47.80
2022-09-09T02:41:41.145Z,47.80
2022-09-09T02:44:13.956Z,47.90
2022-09-09T02:47:06.903Z,47.90
2022-09-09T02:49:46.324Z,47.80
2022-09-09T02:52:17.546Z,48.00
2022-09-09T02:54:46.979Z,47.90
2022-09-09T02:57:21.720Z,47.90
2022-09-09T02:59:53.984Z,48.00
2022-09-09T03:02:22.842Z,47.90
2022-09-09T03:04:56.607Z,47.90
2022-09-09T03:07:25.176Z,48.00
2022-09-09T03:09:55.970Z,48.00
2022-09-09T03:12:27.134Z,48.10
2022-09-09T03:14:57.401Z,48.10
2022-09-09T03:17:29.023Z,48.10
2022-09-09T03:19:58.858Z,48.10
2022-09-09T03:22:27.762Z,48.10
2022-09-09T03:24:57.929Z,48.10
2022-09-09T03:27:26.559Z,48.10
2022-09-09T03:29:56.943Z,48.10
2022-09-09T03:32:28.030Z,48.10
2022-09-09T03:34:58.667Z,48.10
2022-09-09T03:37:27.758Z,48.10
2022-09-09T03:39:56.505Z,48.10
2022-09-09T03:42:25.808Z,48.10
2022-09-09T03:44:58.996Z,48.00
2022-09-09T03:47:28.798Z,48.00
2022-09-09T03:50:05.213Z,48.10
2022-09-09T03:52:37.080Z,48.20
2022-09-09T03:55:09.128Z,48.00
2022-09-09T03:57:38.276Z,48.10
2022-09-09T04:00:12.851Z,48.10
2022-09-09T04:02:57.823Z,48.10
2022-09-09T04:05:26.195Z,48.00
2022-09-09T04:07:55.315Z,48.10
2022-09-09T04:10:24.161Z,48.10
2022-09-09T04:12:54.771Z,48.20
2022-09-09T04:15:25.312Z,48.10
2022-09-09T04:17:53.767Z,48.20
2022-09-09T04:20:23.135Z,48.10
2022-09-09T04:22:51.770Z,48.10
2022-09-09T04:25:20.094Z,48.10
2022-09-09T04:27:49.261Z,48.10
2022-09-09T04:30:17.862Z,48.10
2022-09-09T04:32:47.704Z,48.20
2022-09-09T04:35:16.888Z,49.40
2022-09-09T04:37:45.985Z,48.20
2022-09-09T04:40:15.011Z,48.10
2022-09-09T04:42:45.227Z,48.10
2022-09-09T04:45:16.462Z,48.20
2022-09-09T04:47:44.847Z,48.10
2022-09-09T04:50:14.501Z,48.10
2022-09-09T04:52:43.265Z,48.10
2022-09-09T04:55:11.728Z,48.10
2022-09-09T04:57:40.078Z,48.10
2022-09-09T05:00:09.804Z,48.10
2022-09-09T05:02:43.682Z,48.20
2022-09-09T05:05:13.185Z,48.10
2022-09-09T05:07:44.350Z,48.20
2022-09-09T05:10:15.199Z,48.20
2022-09-09T05:12:44.721Z,48.20
2022-09-09T05:15:13.730Z,49.50
2022-09-09T05:17:42.437Z,48.20
2022-09-09T05:20:16.808Z,48.10
2022-09-09T05:22:47.306Z,48.20
2022-09-09T05:25:17.571Z,48.20
2022-09-09T05:27:46.331Z,48.10
2022-09-09T05:30:15.036Z,48.20
2022-09-09T05:32:44.416Z,48.00
2022-09-09T05:35:14.512Z,48.10
2022-09-09T05:37:42.798Z,48.10
2022-09-09T05:40:13.604Z,48.10
2022-09-09T05:42:42.431Z,48.10
2022-09-09T05:45:11.975Z,49.40
2022-09-09T05:47:40.977Z,48.10
2022-09-09T05:50:14.019Z,48.20
2022-09-09T05:52:42.523Z,48.10
2022-09-09T05:55:12.404Z,48.10
2022-09-09T05:57:41.354Z,48.10
2022-09-09T06:00:11.284Z,48.10
2022-09-09T06:02:42.601Z,48.10
2022-09-09T06:05:14.287Z,48.10
2022-09-09T06:07:44.627Z,48.10
2022-09-09T06:10:15.475Z,48.10
2022-09-09T06:12:43.715Z,48.10
2022-09-09T06:15:12.182Z,48.10
2022-09-09T06:17:42.733Z,48.10
2022-09-09T06:20:11.314Z,48.10
2022-09-09T06:22:41.751Z,48.10
2022-09-09T06:25:11.063Z,48.10
2022-09-09T06:27:43.050Z,48.10
2022-09-09T06:30:12.766Z,48.20
2022-09-09T06:32:41.098Z,48.20
2022-09-09T06:35:10.340Z,48.00
2022-09-09T06:37:38.630Z,48.10
2022-09-09T06:40:08.137Z,48.10
2022-09-09T06:42:36.772Z,48.90
2022-09-09T06:45:24.711Z,48.10
2022-09-09T06:47:57.933Z,48.00
2022-09-09T06:50:26.622Z,48.20
2022-09-09T06:52:55.104Z,48.00
2022-09-09T06:55:23.681Z,48.00
2022-09-09T06:57:52.052Z,48.10
2022-09-09T07:00:26.102Z,48.00
2022-09-09T07:02:54.399Z,48.00
2022-09-09T07:05:24.163Z,48.00
2022-09-09T07:07:54.091Z,47.90
2022-09-09T07:10:22.788Z,48.10
2022-09-09T07:12:53.753Z,47.90
2022-09-09T07:15:25.907Z,47.80
2022-09-09T07:17:55.439Z,47.80
2022-09-09T07:20:23.689Z,47.80
2022-09-09T07:22:56.492Z,47.90
2022-09-09T07:25:24.920Z,47.90
2022-09-09T07:27:53.214Z,47.80
2022-09-09T07:30:27.533Z,47.80
2022-09-09T07:32:59.331Z,47.80
2022-09-09T07:35:28.017Z,47.80
2022-09-09T07:37:57.180Z,47.80
2022-09-09T07:40:26.000Z,47.80
2022-09-09T07:42:55.002Z,47.80
2022-09-09T07:45:23.613Z,47.70
2022-09-09T07:47:53.661Z,47.80
2022-09-09T07:50:23.948Z,47.80
2022-09-09T07:52:52.850Z,47.90
2022-09-09T07:55:22.681Z,47.80
2022-09-09T07:57:51.160Z,47.80
2022-09-09T08:00:21.001Z,47.80
2022-09-09T08:02:55.215Z,47.60
2022-09-09T08:05:26.128Z,47.60
2022-09-09T08:07:54.945Z,47.60
2022-09-09T08:10:23.716Z,47.70
2022-09-09T08:13:08.192Z,47.60
2022-09-09T08:15:44.408Z,47.70
2022-09-09T08:18:13.208Z,47.50
2022-09-09T08:20:43.242Z,47.50
2022-09-09T08:23:11.672Z,50.50
2022-09-09T08:25:40.122Z,48.10
2022-09-09T08:28:08.798Z,47.50
2022-09-09T08:30:38.429Z,47.30
2022-09-09T08:33:08.881Z,47.40
2022-09-09T08:35:37.298Z,47.30
2022-09-09T08:38:10.780Z,47.30
2022-09-09T08:40:46.444Z,47.30
2022-09-09T08:43:18.703Z,47.30
2022-09-09T08:45:58.832Z,47.20
2022-09-09T08:48:45.842Z,47.20
2022-09-09T08:51:15.322Z,47.30
2022-09-09T08:53:49.613Z,47.20
2022-09-09T08:56:23.305Z,47.10
2022-09-09T08:58:57.676Z,47.20
2022-09-09T09:01:46.039Z,47.20
2022-09-09T09:04:33.936Z,47.20
2022-09-09T09:07:12.502Z,47.10
2022-09-09T09:09:48.141Z,47.20
2022-09-09T09:12:20.622Z,47.20
2022-09-09T09:14:50.896Z,47.10
2022-09-09T09:17:22.391Z,47.10
2022-09-09T09:19:51.798Z,47.20
2022-09-09T09:22:23.797Z,47.20
2022-09-09T09:25:04.911Z,47.10
2022-09-09T09:27:36.336Z,47.00
2022-09-09T09:30:26.814Z,47.10
2022-09-09T09:33:05.341Z,47.10
2022-09-09T09:35:37.420Z,48.30
2022-09-09T09:41:08.797Z,47.10
2022-09-09T09:43:41.941Z,47.10
2022-09-09T09:46:24.527Z,47.20
2022-09-09T09:48:59.706Z,47.20
2022-09-09T09:51:31.263Z,47.10
2022-09-09T09:54:11.751Z,47.20
2022-09-09T09:56:43.119Z,47.00
2022-09-09T09:59:38.690Z,47.00
2022-09-09T10:02:22.049Z,47.10
2022-09-09T10:05:05.481Z,47.10
2022-09-09T10:07:38.455Z,47.00
2022-09-09T10:10:10.776Z,47.10
2022-09-09T10:12:51.920Z,47.10
2022-09-09T10:15:33.811Z,47.00
2022-09-09T10:18:16.190Z,47.10
2022-09-09T10:20:53.382Z,47.20
2022-09-09T10:23:36.417Z,47.10
2022-09-09T10:26:21.937Z,47.20
2022-09-09T10:29:13.022Z,47.10
2022-09-09T10:31:50.644Z,47.00
2022-09-09T10:34:36.216Z,47.20
2022-09-09T10:37:09.091Z,47.00
2022-09-09T10:39:43.114Z,47.10
2022-09-09T10:42:14.931Z,47.00
2022-09-09T10:45:11.898Z,47.00
2022-09-09T10:48:02.439Z,47.00
2022-09-09T10:51:05.248Z,47.00
2022-09-09T10:53:39.758Z,47.10
2022-09-09T10:56:11.823Z,47.20
2022-09-09T10:58:45.003Z,47.20
2022-09-09T11:01:21.109Z,47.20
2022-09-09T11:03:56.463Z,47.10
2022-09-09T11:06:33.727Z,47.20
2022-09-09T11:09:04.440Z,47.10
2022-09-09T11:11:39.031Z,47.00
2022-09-09T11:14:17.285Z,47.00
2022-09-09T11:16:52.063Z,47.00
2022-09-09T11:19:28.963Z,47.00
2022-09-09T11:21:59.746Z,46.90
2022-09-09T11:24:33.808Z,46.90
2022-09-09T11:27:10.356Z,47.00
2022-09-09T11:30:08.356Z,47.00
2022-09-09T11:33:05.681Z,47.00
2022-09-09T11:35:41.649Z,47.00
2022-09-09T11:38:20.686Z,46.80
2022-09-09T11:40:49.725Z,46.80
2022-09-09T11:43:23.367Z,46.80
2022-09-09T11:46:00.205Z,46.70
2022-09-09T11:48:38.767Z,46.80
2022-09-09T11:51:14.645Z,46.60
2022-09-09T11:53:53.858Z,46.40
2022-09-09T11:56:31.926Z,46.20
2022-09-09T11:59:04.595Z,46.50
2022-09-09T12:01:39.505Z,46.40
2022-09-09T12:04:31.651Z,46.40
2022-09-09T12:07:05.650Z,46.40
2022-09-09T12:09:50.521Z,46.40
2022-09-09T12:12:28.669Z,46.90
2022-09-09T12:15:17.229Z,47.10
2022-09-09T12:17:47.725Z,47.20
2022-09-09T12:20:19.910Z,47.50
2022-09-09T12:23:17.180Z,47.60
2022-09-09T12:26:04.316Z,47.70
2022-09-09T12:28:57.290Z,47.60
2022-09-09T12:31:29.277Z,47.60
2022-09-09T12:33:57.567Z,48.60
2022-09-09T12:36:31.774Z,47.50
2022-09-09T12:39:11.724Z,47.50
2022-09-09T12:41:39.999Z,47.50
2022-09-09T12:44:10.630Z,47.60
2022-09-09T12:46:43.076Z,47.60
2022-09-09T12:49:29.322Z,47.60
2022-09-09T12:51:59.686Z,47.50
2022-09-09T12:54:29.149Z,47.60
2022-09-09T12:56:57.405Z,47.60
2022-09-09T12:59:37.690Z,47.60
2022-09-09T13:02:20.670Z,47.70
2022-09-09T13:04:51.536Z,47.60
2022-09-09T13:07:22.760Z,47.80
2022-09-09T13:09:51.680Z,47.70
2022-09-09T13:12:23.555Z,47.70
2022-09-09T13:14:57.339Z,47.70
2022-09-09T13:17:29.897Z,47.60
2022-09-09T13:19:59.144Z,47.70
2022-09-09T13:22:34.116Z,47.60
2022-09-09T13:25:05.464Z,47.60
2022-09-09T13:27:35.810Z,47.80
2022-09-09T13:30:23.819Z,47.80
2022-09-09T13:33:06.536Z,47.50
2022-09-09T13:35:37.215Z,47.50
2022-09-09T13:38:16.207Z,47.50
2022-09-09T13:40:55.786Z,47.60
2022-09-09T13:43:26.106Z,47.90
2022-09-09T13:45:59.353Z,48.00
2022-09-09T13:48:28.250Z,48.20
2022-09-09T13:50:58.757Z,48.30
2022-09-09T13:53:28.916Z,48.50
2022-09-09T13:55:57.911Z,48.60
2022-09-09T14:00:01.216Z,48.80
2022-09-09T14:02:27.681Z,49.00
2022-09-09T14:12:21.598Z,49.30
2022-09-09T14:24:51.517Z,49.50
2022-09-09T14:27:20.931Z,49.60
2022-09-09T14:29:49.655Z,49.60
2022-09-09T14:32:18.500Z,49.90
2022-09-09T14:34:47.172Z,49.90
2022-09-09T14:37:15.767Z,50.10
2022-09-09T14:39:45.277Z,50.00
2022-09-09T14:42:15.696Z,50.00
2022-09-09T14:44:44.594Z,49.90
2022-09-09T14:47:13.268Z,50.00
2022-09-09T14:49:45.160Z,50.00
2022-09-09T14:52:15.777Z,50.00
2022-09-09T14:54:44.487Z,50.30
2022-09-09T14:57:22.846Z,50.50
2022-09-09T15:00:04.065Z,50.60
2022-09-09T15:02:38.285Z,50.50
2022-09-09T15:05:08.329Z,50.50
2022-09-09T15:07:37.129Z,50.40
2022-09-09T15:10:07.701Z,50.50
2022-09-09T15:12:52.772Z,50.50
2022-09-09T15:15:27.915Z,50.30
2022-09-09T15:17:57.753Z,50.20
2022-09-09T15:20:41.168Z,50.70
2022-09-09T15:23:10.117Z,50.90
2022-09-09T15:26:00.515Z,52.70
2022-09-09T15:28:33.709Z,51.40
2022-09-09T15:31:09.258Z,51.40
2022-09-09T15:33:38.927Z,51.80
2022-09-09T15:36:19.228Z,51.80
2022-09-09T15:38:48.579Z,52.40
2022-09-09T15:41:17.966Z,52.20
2022-09-09T15:43:49.867Z,52.60
2022-09-09T15:46:30.240Z,52.60
2022-09-09T15:49:03.767Z,52.40
2022-09-09T15:51:42.647Z,52.40
2022-09-09T15:54:21.790Z,52.70
2022-09-09T15:56:57.379Z,52.90
2022-09-09T15:59:28.944Z,53.50
2022-09-09T16:01:58.041Z,53.30
2022-09-09T16:04:27.941Z,53.50
2022-09-09T16:06:58.735Z,53.60
2022-09-09T16:09:27.843Z,53.50
2022-09-09T16:11:59.891Z,53.60
2022-09-09T16:14:35.126Z,53.70
2022-09-09T16:17:04.656Z,53.40
2022-09-09T16:19:33.385Z,53.70
2022-09-09T16:22:01.958Z,53.50
2022-09-09T16:24:30.593Z,53.30
2022-09-09T16:26:59.366Z,53.40
2022-09-09T16:29:29.394Z,53.70
2022-09-09T16:32:02.866Z,54.00
2022-09-09T16:34:32.512Z,54.40
2022-09-09T16:37:03.094Z,53.80
2022-09-09T16:39:31.888Z,53.40
2022-09-09T16:42:00.870Z,53.40
2022-09-09T16:44:30.998Z,53.20
2022-09-09T16:47:01.004Z,53.20
2022-09-09T16:49:30.409Z,53.50
2022-09-09T16:52:01.233Z,53.50
2022-09-09T16:54:30.396Z,53.20
2022-09-09T16:56:59.757Z,53.20
2022-09-09T16:59:28.817Z,53.20
2022-09-09T17:02:05.983Z,53.20
2022-09-09T17:04:34.488Z,53.20
2022-09-09T17:07:03.783Z,53.20
2022-09-09T17:09:32.557Z,53.00
2022-09-09T17:12:01.989Z,53.10
2022-09-09T17:14:32.188Z,53.20
2022-09-09T17:17:24.751Z,53.10
2022-09-09T17:19:51.975Z,53.10
2022-09-09T17:22:20.906Z,53.00
2022-09-09T17:24:49.509Z,53.00
2022-09-09T17:27:18.010Z,53.00
2022-09-09T17:29:46.841Z,53.00
2022-09-09T17:32:16.924Z,52.90
2022-09-09T17:34:47.039Z,52.90
2022-09-09T17:37:15.545Z,53.00
2022-09-09T17:39:45.769Z,53.20
2022-09-09T17:42:15.528Z,53.30
2022-09-09T17:44:43.999Z,53.20
2022-09-09T17:47:12.843Z,53.20
2022-09-09T17:49:42.916Z,53.00
2022-09-09T17:52:11.534Z,53.20
2022-09-09T17:54:42.677Z,53.20
2022-09-09T17:57:11.390Z,53.10
2022-09-09T17:59:40.160Z,53.30
2022-09-09T18:02:08.829Z,53.20
2022-09-09T18:04:38.269Z,53.10
2022-09-09T18:07:08.344Z,53.20
2022-09-09T18:09:39.093Z,53.20
2022-09-09T18:12:08.328Z,53.10
2022-09-09T18:14:36.928Z,53.10
2022-09-09T18:17:05.689Z,53.00
2022-09-09T18:19:34.671Z,53.10
2022-09-09T18:22:05.724Z,53.10
2022-09-09T18:24:36.563Z,53.10
2022-09-09T18:27:05.495Z,53.10
2022-09-09T18:29:34.377Z,53.20
2022-09-09T18:32:03.610Z,53.10
2022-09-09T18:34:32.377Z,52.90
2022-09-09T18:37:01.000Z,53.00
2022-09-09T18:39:30.641Z,53.00
2022-09-09T18:42:02.774Z,53.00
2022-09-09T18:44:33.867Z,52.90
2022-09-09T18:47:03.776Z,52.90
2022-09-09T18:49:33.331Z,52.80
2022-09-09T18:52:03.422Z,52.90
2022-09-09T18:54:33.523Z,53.00
2022-09-09T18:57:03.629Z,52.90
2022-09-09T18:59:32.491Z,52.90
2022-09-09T19:02:01.234Z,52.90
2022-09-09T19:04:30.996Z,52.90
2022-09-09T19:06:59.977Z,52.80
2022-09-09T19:09:31.209Z,52.80
2022-09-09T19:12:01.051Z,52.90
2022-09-09T19:14:31.834Z,52.80
2022-09-09T19:17:00.652Z,52.70
2022-09-09T19:19:34.103Z,52.80
2022-09-09T19:22:03.793Z,52.80
2022-09-09T19:24:37.018Z,52.70
2022-09-09T19:27:07.900Z,52.70
2022-09-09T19:29:40.055Z,52.60
2022-09-09T19:34:59.762Z,52.70
2022-09-09T19:37:28.272Z,52.70
2022-09-09T19:39:56.935Z,52.60
2022-09-09T19:42:25.831Z,52.50
2022-09-09T19:44:56.671Z,52.50
2022-09-09T19:47:25.311Z,52.50
2022-09-09T19:49:53.858Z,52.40
2022-09-09T19:52:22.533Z,52.50
2022-09-09T19:54:51.213Z,52.50
2022-09-09T19:57:20.328Z,52.40
2022-09-09T19:59:48.876Z,52.40
2022-09-09T20:02:18.860Z,52.40
2022-09-09T20:04:47.951Z,52.40
2022-09-09T20:07:16.489Z,52.30
2022-09-09T20:09:45.027Z,52.40
2022-09-09T20:12:13.584Z,52.30
2022-09-09T20:14:42.149Z,52.40
2022-09-09T20:17:11.322Z,52.20
2022-09-09T20:19:41.295Z,52.20
2022-09-09T20:22:11.318Z,52.20
2022-09-09T20:24:39.877Z,52.30
2022-09-09T20:27:09.423Z,52.20
2022-09-09T20:29:39.379Z,52.20
2022-09-09T20:32:08.253Z,52.20
2022-09-09T20:34:36.736Z,52.10
2022-09-09T20:37:06.876Z,52.10
2022-09-09T20:39:36.039Z,52.00
2022-09-09T20:42:05.380Z,52.10
2022-09-09T20:44:33.882Z,52.10
2022-09-09T20:47:06.652Z,52.00
2022-09-09T20:49:36.305Z,52.00
2022-09-09T20:52:06.960Z,52.10
2022-09-09T20:54:37.608Z,52.00
2022-09-09T20:57:07.260Z,51.80
2022-09-09T20:59:36.154Z,51.80
2022-09-09T21:02:05.197Z,51.80
2022-09-09T21:04:33.886Z,51.80
2022-09-09T21:07:02.650Z,51.80
2022-09-09T21:09:32.703Z,51.80
2022-09-09T21:12:01.277Z,51.80
2022-09-09T21:14:30.017Z,51.80
2022-09-09T21:16:58.547Z,51.80
2022-09-09T21:19:27.057Z,51.80
2022-09-09T21:21:55.649Z,51.80
2022-09-09T21:24:24.355Z,51.80
2022-09-09T21:26:55.406Z,51.80
2022-09-09T21:29:24.366Z,51.80
2022-09-09T21:31:53.240Z,51.70
2022-09-09T21:34:22.113Z,51.80
2022-09-09T21:36:50.703Z,51.70
2022-09-09T21:39:19.367Z,51.80
2022-09-09T21:41:49.430Z,51.70
2022-09-09T21:44:21.068Z,51.80
2022-09-09T21:46:49.703Z,51.70
2022-09-09T21:49:18.261Z,51.70
2022-09-09T21:51:47.099Z,51.70
2022-09-09T21:54:15.703Z,51.70
2022-09-09T21:56:44.334Z,51.70
2022-09-09T21:59:12.819Z,51.70
2022-09-09T22:01:43.215Z,51.70
2022-09-09T22:04:11.898Z,51.80
2022-09-09T22:06:40.669Z,51.70
2022-09-09T22:09:09.202Z,51.70
2022-09-09T22:11:37.753Z,51.70
2022-09-09T22:14:06.365Z,51.70
2022-09-09T22:16:35.117Z,51.70
2022-09-09T22:19:05.337Z,51.70
2022-09-09T22:21:34.480Z,51.70
2022-09-09T22:24:05.105Z,51.70
2022-09-09T22:26:36.282Z,51.80
2022-09-09T22:29:06.079Z,51.70
2022-09-09T22:31:36.404Z,51.70
2022-09-09T22:34:06.965Z,51.70
2022-09-09T22:36:35.605Z,51.70
2022-09-09T22:39:04.656Z,51.60
2022-09-09T22:41:33.986Z,51.60
2022-09-09T22:44:02.639Z,51.60
2022-09-09T22:46:31.524Z,51.60
2022-09-09T22:49:00.225Z,51.70
2022-09-09T22:51:30.332Z,51.60
2022-09-09T22:53:58.878Z,51.50
2022-09-09T22:56:27.872Z,51.60
2022-09-09T22:58:57.642Z,51.70
2022-09-09T23:01:27.984Z,51.60
2022-09-09T23:03:59.254Z,51.70
2022-09-09T23:06:30.356Z,51.60
2022-09-09T23:09:01.137Z,51.50
2022-09-09T23:11:31.769Z,51.30
2022-09-09T23:14:01.826Z,51.40
2022-09-09T23:16:33.026Z,51.40
2022-09-09T23:19:02.063Z,51.30
2022-09-09T23:21:33.211Z,51.30
2022-09-09T23:24:02.442Z,51.30
2022-09-09T23:26:30.999Z,51.30
2022-09-09T23:29:00.693Z,51.20
2022-09-09T23:31:33.051Z,51.20
2022-09-09T23:34:02.306Z,51.10
2022-09-09T23:36:32.440Z,51.30
2022-09-09T23:39:03.788Z,51.20
2022-09-09T23:41:34.123Z,51.20
2022-09-09T23:44:03.635Z,51.10
2022-09-09T23:46:33.283Z,51.10
2022-09-09T23:49:02.776Z,51.10
2022-09-09T23:51:34.135Z,51.20
2022-09-09T23:54:05.017Z,51.00
2022-09-09T23:56:35.467Z,51.10
2022-09-09T23:59:04.076Z,51.00
